Curralinho, Brazil
Current Conditions -  °F | °C
As of 12:00 PM on Wednesday 26 Nov 2014 (Local Time) from SBBE Reporting Station
Broken Clouds Broken Clouds  
Wind Chill: 88°   Ceiling: 4000
Heat Index: 94°   Visibility: 6mi
Dew Point: 72°   Wind: 7mph
Humidity: 58%   Direction: 120°ESE
Pressure: 29.83"   Gusts: NA
Location:  1.8°S, 49.78°W
Report Text: SBBE 261500Z 12006KT 9999 BKN040 31/22 Q1010
Loading
Personal Weather Stations






























Interactive Weather Map New forecast layout! Learn more

10-Day Weather Forecast

Advertisements
Track Severe Weather on mobile